createdAt,value
2017-01-22T00:00:18.982Z,1021.99
2017-01-22T00:00:59.624Z,1022.02
2017-01-22T00:01:40.283Z,1022.01
2017-01-22T00:02:20.924Z,1022.01
2017-01-22T00:03:01.575Z,1021.98
2017-01-22T00:03:42.232Z,1022.01
2017-01-22T00:04:22.894Z,1021.99
2017-01-22T00:05:03.536Z,1021.98
2017-01-22T00:05:44.193Z,1021.98
2017-01-22T00:06:24.767Z,1021.97
2017-01-22T00:07:06.420Z,1021.97
2017-01-22T00:07:47.077Z,1022
2017-01-22T00:08:27.726Z,1021.94
2017-01-22T00:09:08.384Z,1021.96
2017-01-22T00:09:49.036Z,1021.98
2017-01-22T00:10:30.608Z,1021.99
2017-01-22T00:11:11.179Z,1021.95
2017-01-22T00:11:51.875Z,1021.94
2017-01-22T00:12:32.560Z,1021.92
2017-01-22T00:13:13.213Z,1021.96
2017-01-22T00:13:53.794Z,1021.92
2017-01-22T00:14:34.496Z,1021.94
2017-01-22T00:15:15.169Z,1021.95
2017-01-22T00:15:56.746Z,1022.03
2017-01-22T00:16:37.315Z,1022.02
2017-01-22T00:17:17.906Z,1021.99
2017-01-22T00:17:58.518Z,1022.02
2017-01-22T00:18:39.154Z,1022
2017-01-22T00:19:19.757Z,1021.99
2017-01-22T00:20:00.476Z,1022.07
2017-01-22T00:20:41.130Z,1022.08
2017-01-22T00:21:21.763Z,1022.03
2017-01-22T00:22:02.433Z,1021.99
2017-01-22T00:22:43.070Z,1022.03
2017-01-22T00:23:23.723Z,1022.04
2017-01-22T00:24:04.377Z,1022.03
2017-01-22T00:24:45.037Z,1022.05
2017-01-22T00:25:25.696Z,1022.06
2017-01-22T00:26:06.334Z,1022.01
2017-01-22T00:26:46.989Z,1022.02
2017-01-22T00:27:27.650Z,1022.05
2017-01-22T00:28:08.296Z,1022.03
2017-01-22T00:28:48.956Z,1022.03
2017-01-22T00:29:29.607Z,1021.99
2017-01-22T00:30:10.271Z,1021.99
2017-01-22T00:30:50.922Z,1021.98
2017-01-22T00:31:31.564Z,1021.99
2017-01-22T00:32:12.214Z,1021.95
2017-01-22T00:32:52.867Z,1021.92
2017-01-22T00:33:33.526Z,1021.98
2017-01-22T00:34:14.175Z,1021.94
2017-01-22T00:34:54.831Z,1021.93
2017-01-22T00:35:36.506Z,1021.96
2017-01-22T00:36:17.078Z,1021.98
2017-01-22T00:36:57.709Z,1021.96
2017-01-22T00:37:39.378Z,1021.99
2017-01-22T00:38:20.053Z,1021.98
2017-01-22T00:39:00.695Z,1021.97
2017-01-22T00:39:41.350Z,1022.01
2017-01-22T00:40:21.992Z,1021.98
2017-01-22T00:41:02.656Z,1021.99
2017-01-22T00:41:43.310Z,1022.02
2017-01-22T00:42:23.947Z,1021.96
2017-01-22T00:43:04.606Z,1022.03
2017-01-22T00:43:45.265Z,1022.02
2017-01-22T00:44:25.918Z,1021.99
2017-01-22T00:45:06.501Z,1021.99
2017-01-22T00:45:47.222Z,1022
2017-01-22T00:46:27.874Z,1021.96
2017-01-22T00:47:08.529Z,1021.99
2017-01-22T00:47:49.184Z,1021.96
2017-01-22T00:48:30.856Z,1021.94
2017-01-22T00:49:11.512Z,1021.95
2017-01-22T00:49:52.156Z,1021.96
2017-01-22T00:50:32.821Z,1021.95
2017-01-22T00:51:13.470Z,1022.02
2017-01-22T00:51:54.118Z,1021.96
2017-01-22T00:52:35.492Z,1021.95
2017-01-22T00:53:17.170Z,1021.94
2017-01-22T00:53:57.821Z,1021.98
2017-01-22T00:54:38.474Z,1021.98
2017-01-22T00:55:19.048Z,1021.98
2017-01-22T00:55:59.675Z,1021.95
2017-01-22T00:56:40.333Z,1021.99
2017-01-22T00:57:20.907Z,1021.95
2017-01-22T00:58:01.537Z,1022.02
2017-01-22T00:58:42.188Z,1022
2017-01-22T00:59:22.765Z,1021.99
2017-01-22T01:00:03.395Z,1022.01
2017-01-22T01:00:44.044Z,1022.03
2017-01-22T01:01:24.604Z,1022.02
2017-01-22T01:02:05.211Z,1021.99
2017-01-22T01:02:45.807Z,1022.02
2017-01-22T01:03:27.474Z,1021.95
2017-01-22T01:04:08.049Z,1021.96
2017-01-22T01:04:48.749Z,1021.98
2017-01-22T01:05:29.338Z,1021.97
2017-01-22T01:06:11.008Z,1022.03
2017-01-22T01:06:51.574Z,1022
2017-01-22T01:07:32.144Z,1022.06
2017-01-22T01:08:12.761Z,1022.01
2017-01-22T01:08:53.419Z,1022.04
2017-01-22T01:09:33.981Z,1022.04
2017-01-22T01:10:14.573Z,1022.07
2017-01-22T01:10:55.179Z,1022.01
2017-01-22T01:11:35.758Z,1022.03
2017-01-22T01:12:16.364Z,1022.01
2017-01-22T01:12:57.029Z,1021.99
2017-01-22T01:13:37.585Z,1021.97
2017-01-22T01:14:18.224Z,1022.03
2017-01-22T01:14:58.877Z,1021.98
2017-01-22T01:15:39.456Z,1021.98
2017-01-22T01:16:20.033Z,1021.99
2017-01-22T01:17:00.642Z,1022.03
2017-01-22T01:17:42.312Z,1022.03
2017-01-22T01:18:22.863Z,1022.01
2017-01-22T01:19:03.461Z,1022.06
2017-01-22T01:19:44.064Z,1022.02
2017-01-22T01:20:24.722Z,1022.02
2017-01-22T01:21:05.377Z,1022.03
2017-01-22T01:21:46.024Z,1022.03
2017-01-22T01:22:26.682Z,1022.02
2017-01-22T01:23:07.344Z,1022.01
2017-01-22T01:23:47.983Z,1022.04
2017-01-22T01:24:28.639Z,1021.99
2017-01-22T01:25:10.317Z,1021.97
2017-01-22T01:25:50.970Z,1021.97
2017-01-22T01:26:32.652Z,1021.94
2017-01-22T01:27:13.301Z,1021.91
2017-01-22T01:27:53.956Z,1021.94
2017-01-22T01:28:34.601Z,1021.97
2017-01-22T01:29:15.257Z,1021.95
2017-01-22T01:29:55.912Z,1021.93
2017-01-22T01:30:36.562Z,1021.91
2017-01-22T01:31:17.216Z,1021.92
2017-01-22T01:31:57.870Z,1021.95
2017-01-22T01:32:38.525Z,1021.93
2017-01-22T01:33:19.176Z,1021.95
2017-01-22T01:33:59.829Z,1021.96
2017-01-22T01:34:40.477Z,1021.95
2017-01-22T01:35:21.130Z,1021.97
2017-01-22T01:36:01.788Z,1021.92
2017-01-22T01:36:42.439Z,1021.99
2017-01-22T01:37:23.098Z,1021.99
2017-01-22T01:38:03.747Z,1021.95
2017-01-22T01:38:44.397Z,1021.94
2017-01-22T01:39:25.051Z,1021.97
2017-01-22T01:40:05.704Z,1021.97
2017-01-22T01:40:46.358Z,1021.96
2017-01-22T01:41:27.005Z,1021.95
2017-01-22T01:42:08.687Z,1021.94
2017-01-22T01:42:49.342Z,1021.92
2017-01-22T01:43:29.998Z,1021.89
2017-01-22T01:44:10.650Z,1021.9
2017-01-22T01:44:51.301Z,1021.9
2017-01-22T01:45:31.960Z,1021.9
2017-01-22T01:46:12.606Z,1021.84
2017-01-22T01:46:53.256Z,1021.87
2017-01-22T01:47:33.909Z,1021.84
2017-01-22T01:48:14.565Z,1021.87
2017-01-22T01:48:55.215Z,1021.89
2017-01-22T01:49:35.871Z,1021.87
2017-01-22T01:50:16.522Z,1021.85
2017-01-22T01:50:57.173Z,1021.84
2017-01-22T01:51:37.784Z,1021.83
2017-01-22T01:52:18.378Z,1021.85
2017-01-22T01:52:59.030Z,1021.83
2017-01-22T01:53:39.683Z,1021.81
2017-01-22T01:54:20.339Z,1021.84
2017-01-22T01:55:00.990Z,1021.85
2017-01-22T01:55:41.643Z,1021.82
2017-01-22T01:56:22.298Z,1021.78
2017-01-22T01:57:02.946Z,1021.83
2017-01-22T01:57:43.603Z,1021.81
2017-01-22T01:58:24.254Z,1021.83
2017-01-22T01:59:04.909Z,1021.79
2017-01-22T01:59:45.561Z,1021.83
2017-01-22T02:00:26.213Z,1021.82
2017-01-22T02:01:06.837Z,1021.8
2017-01-22T02:01:47.415Z,1021.84
2017-01-22T02:02:27.990Z,1021.81
2017-01-22T02:03:08.619Z,1021.79
2017-01-22T02:03:49.276Z,1021.8
2017-01-22T02:04:29.926Z,1021.77
2017-01-22T02:05:11.604Z,1021.77
2017-01-22T02:05:52.172Z,1021.75
2017-01-22T02:06:32.751Z,1021.77
2017-01-22T02:07:13.355Z,1021.7
2017-01-22T02:07:54.010Z,1021.71
2017-01-22T02:08:34.592Z,1021.71
2017-01-22T02:09:15.170Z,1021.73
2017-01-22T02:09:55.760Z,1021.7
2017-01-22T02:10:36.419Z,1021.7
2017-01-22T02:11:16.990Z,1021.69
2017-01-22T02:11:57.566Z,1021.7
2017-01-22T02:12:38.169Z,1021.68
2017-01-22T02:13:18.734Z,1021.69
2017-01-22T02:13:59.323Z,1021.67
2017-01-22T02:14:39.986Z,1021.67
2017-01-22T02:15:20.569Z,1021.67
2017-01-22T02:16:01.225Z,1021.65
2017-01-22T02:16:41.878Z,1021.68
2017-01-22T02:17:22.535Z,1021.64
2017-01-22T02:18:03.185Z,1021.66
2017-01-22T02:18:44.862Z,1021.66
2017-01-22T02:19:25.531Z,1021.68
2017-01-22T02:20:06.176Z,1021.69
2017-01-22T02:20:46.741Z,1021.73
2017-01-22T02:21:27.324Z,1021.73
2017-01-22T02:22:07.921Z,1021.73
2017-01-22T02:22:48.579Z,1021.74
2017-01-22T02:23:29.156Z,1021.72
2017-01-22T02:24:09.728Z,1021.73
2017-01-22T02:24:50.298Z,1021.7
2017-01-22T02:25:30.952Z,1021.72
2017-01-22T02:26:11.528Z,1021.74
2017-01-22T02:26:52.187Z,1021.74
2017-01-22T02:27:32.851Z,1021.67
2017-01-22T02:28:13.492Z,1021.69
2017-01-22T02:28:54.149Z,1021.69
2017-01-22T02:29:34.799Z,1021.69
2017-01-22T02:30:15.376Z,1021.69
2017-01-22T02:30:55.951Z,1021.67
2017-01-22T02:31:36.553Z,1021.65
2017-01-22T02:32:17.209Z,1021.65
2017-01-22T02:32:57.789Z,1021.67
2017-01-22T02:33:38.352Z,1021.65
2017-01-22T02:34:18.969Z,1021.64
2017-01-22T02:34:59.614Z,1021.65
2017-01-22T02:35:40.190Z,1021.6
2017-01-22T02:36:20.828Z,1021.65
2017-01-22T02:37:01.467Z,1021.58
2017-01-22T02:37:42.044Z,1021.63
2017-01-22T02:38:22.614Z,1021.64
2017-01-22T02:39:03.235Z,1021.69
2017-01-22T02:39:43.875Z,1021.68
2017-01-22T02:40:24.445Z,1021.61
2017-01-22T02:41:05.018Z,1021.67
2017-01-22T02:41:45.637Z,1021.67
2017-01-22T02:42:26.285Z,1021.64
2017-01-22T02:43:06.859Z,1021.67
2017-01-22T02:43:47.444Z,1021.65
2017-01-22T02:44:28.040Z,1021.66
2017-01-22T02:45:08.687Z,1021.67
2017-01-22T02:45:49.345Z,1021.67
2017-01-22T02:46:29.999Z,1021.64
2017-01-22T02:47:10.644Z,1021.64
2017-01-22T02:47:51.308Z,1021.61
2017-01-22T02:48:32.004Z,1021.64
2017-01-22T02:49:12.606Z,1021.64
2017-01-22T02:49:53.262Z,1021.65
2017-01-22T02:50:33.910Z,1021.64
2017-01-22T02:51:14.569Z,1021.63
2017-01-22T02:51:55.222Z,1021.68
2017-01-22T02:52:35.882Z,1021.67
2017-01-22T02:53:16.518Z,1021.67
2017-01-22T02:53:57.175Z,1021.68
2017-01-22T02:54:37.753Z,1021.65
2017-01-22T02:55:18.387Z,1021.63
2017-01-22T02:55:59.043Z,1021.63
2017-01-22T02:56:39.689Z,1021.61
2017-01-22T02:57:20.345Z,1021.59
2017-01-22T02:58:00.992Z,1021.57
2017-01-22T02:58:41.585Z,1021.6
2017-01-22T02:59:22.210Z,1021.59
2017-01-22T03:00:02.864Z,1021.55
2017-01-22T03:00:43.501Z,1021.55
2017-01-22T03:01:24.077Z,1021.55
2017-01-22T03:02:04.655Z,1021.55
2017-01-22T03:02:45.383Z,1021.6
2017-01-22T03:03:26.014Z,1021.57
2017-01-22T03:04:06.588Z,1021.58
2017-01-22T03:04:47.176Z,1021.56
2017-01-22T03:05:27.792Z,1021.56
2017-01-22T03:06:08.420Z,1021.57
2017-01-22T03:06:49.086Z,1021.56
2017-01-22T03:07:29.724Z,1021.56
2017-01-22T03:08:10.295Z,1021.5
2017-01-22T03:08:50.944Z,1021.53
2017-01-22T03:09:31.590Z,1021.54
2017-01-22T03:10:12.242Z,1021.52
2017-01-22T03:10:52.822Z,1021.49
2017-01-22T03:11:33.520Z,1021.51
2017-01-22T03:12:14.094Z,1021.47
2017-01-22T03:12:55.675Z,1021.45
2017-01-22T03:13:36.256Z,1021.47
2017-01-22T03:14:17.869Z,1021.46
2017-01-22T03:14:58.568Z,1021.46
2017-01-22T03:15:39.208Z,1021.45
2017-01-22T03:16:19.864Z,1021.49
2017-01-22T03:17:00.518Z,1021.48
2017-01-22T03:17:41.169Z,1021.49
2017-01-22T03:18:21.821Z,1021.52
2017-01-22T03:19:02.486Z,1021.52
2017-01-22T03:19:43.074Z,1021.51
2017-01-22T03:20:23.727Z,1021.53
2017-01-22T03:21:04.429Z,1021.51
2017-01-22T03:21:45.083Z,1021.52
2017-01-22T03:22:25.665Z,1021.54
2017-01-22T03:23:06.357Z,1021.48
2017-01-22T03:23:47.053Z,1021.48
2017-01-22T03:24:27.699Z,1021.5
2017-01-22T03:25:08.275Z,1021.46
2017-01-22T03:25:48.964Z,1021.5
2017-01-22T03:26:29.550Z,1021.47
2017-01-22T03:27:10.209Z,1021.5
2017-01-22T03:27:50.786Z,1021.54
2017-01-22T03:28:32.402Z,1021.51
2017-01-22T03:29:13.971Z,1021.53
2017-01-22T03:29:54.552Z,1021.51
2017-01-22T03:30:35.115Z,1021.49
2017-01-22T03:31:15.686Z,1021.55
2017-01-22T03:31:56.348Z,1021.55
2017-01-22T03:32:36.958Z,1021.52
2017-01-22T03:33:17.602Z,1021.52
2017-01-22T03:33:58.173Z,1021.54
2017-01-22T03:34:38.760Z,1021.53
2017-01-22T03:35:19.364Z,1021.54
2017-01-22T03:36:00.020Z,1021.53
2017-01-22T03:36:40.674Z,1021.5
2017-01-22T03:37:21.331Z,1021.48
2017-01-22T03:38:01.982Z,1021.47
2017-01-22T03:38:42.635Z,1021.47
2017-01-22T03:39:23.283Z,1021.46
2017-01-22T03:40:03.940Z,1021.45
2017-01-22T03:40:44.594Z,1021.45
2017-01-22T03:41:25.246Z,1021.45
2017-01-22T03:42:05.899Z,1021.45
2017-01-22T03:42:46.547Z,1021.44
2017-01-22T03:43:27.202Z,1021.48
2017-01-22T03:44:07.854Z,1021.46
2017-01-22T03:44:48.514Z,1021.48
2017-01-22T03:45:29.165Z,1021.51
2017-01-22T03:46:10.846Z,1021.47
2017-01-22T03:46:51.490Z,1021.47
2017-01-22T03:47:32.148Z,1021.43
2017-01-22T03:48:12.800Z,1021.44
2017-01-22T03:48:53.454Z,1021.45
2017-01-22T03:49:34.102Z,1021.5
2017-01-22T03:50:14.764Z,1021.48
2017-01-22T03:50:55.410Z,1021.47
2017-01-22T03:51:37.094Z,1021.52
2017-01-22T03:52:17.739Z,1021.47
2017-01-22T03:52:58.297Z,1021.48
2017-01-22T03:53:38.890Z,1021.52
2017-01-22T03:54:19.560Z,1021.43
2017-01-22T03:55:00.219Z,1021.43
2017-01-22T03:55:40.866Z,1021.48
2017-01-22T03:56:21.459Z,1021.45
2017-01-22T03:57:02.107Z,1021.48
2017-01-22T03:57:42.666Z,1021.45
2017-01-22T03:58:23.283Z,1021.43
2017-01-22T03:59:03.960Z,1021.45
2017-01-22T03:59:44.723Z,1021.44
2017-01-22T04:00:25.272Z,1021.45
2017-01-22T04:01:05.922Z,1021.48
2017-01-22T04:01:46.568Z,1021.43
2017-01-22T04:02:27.222Z,1021.45
2017-01-22T04:03:07.878Z,1021.47
2017-01-22T04:03:48.540Z,1021.48
2017-01-22T04:04:29.205Z,1021.46
2017-01-22T04:05:09.847Z,1021.48
2017-01-22T04:05:50.493Z,1021.47
2017-01-22T04:06:31.144Z,1021.47
2017-01-22T04:07:12.716Z,1021.45
2017-01-22T04:07:53.369Z,1021.42
2017-01-22T04:08:34.023Z,1021.44
2017-01-22T04:09:14.684Z,1021.45
2017-01-22T04:09:55.233Z,1021.46
2017-01-22T04:10:35.981Z,1021.46
2017-01-22T04:11:16.636Z,1021.42
2017-01-22T04:11:57.208Z,1021.48
2017-01-22T04:12:37.808Z,1021.41
2017-01-22T04:13:18.394Z,1021.43
2017-01-22T04:13:59.064Z,1021.42
2017-01-22T04:14:39.685Z,1021.41
2017-01-22T04:15:20.297Z,1021.4
2017-01-22T04:16:01.005Z,1021.39
2017-01-22T04:16:41.650Z,1021.38
2017-01-22T04:17:22.313Z,1021.4
2017-01-22T04:18:02.997Z,1021.41
2017-01-22T04:18:43.603Z,1021.36
2017-01-22T04:19:24.272Z,1021.37
2017-01-22T04:20:05.877Z,1021.36
2017-01-22T04:20:47.529Z,1021.34
2017-01-22T04:21:28.177Z,1021.35
2017-01-22T04:22:08.827Z,1021.35
2017-01-22T04:22:49.484Z,1021.35
2017-01-22T04:23:30.129Z,1021.32
2017-01-22T04:24:10.803Z,1021.36
2017-01-22T04:24:51.438Z,1021.36
2017-01-22T04:25:32.198Z,1021.37
2017-01-22T04:26:12.851Z,1021.37
2017-01-22T04:26:53.423Z,1021.34
2017-01-22T04:27:35.077Z,1021.35
2017-01-22T04:28:15.729Z,1021.39
2017-01-22T04:28:56.379Z,1021.37
2017-01-22T04:29:38.051Z,1021.39
2017-01-22T04:30:18.701Z,1021.35
2017-01-22T04:30:59.359Z,1021.36
2017-01-22T04:31:41.039Z,1021.37
2017-01-22T04:32:21.694Z,1021.29
2017-01-22T04:33:02.348Z,1021.35
2017-01-22T04:33:42.990Z,1021.32
2017-01-22T04:34:24.676Z,1021.31
2017-01-22T04:35:05.334Z,1021.32
2017-01-22T04:35:45.903Z,1021.36
2017-01-22T04:36:26.579Z,1021.33
2017-01-22T04:37:08.200Z,1021.35
2017-01-22T04:37:48.859Z,1021.37
2017-01-22T04:38:29.420Z,1021.32
2017-01-22T04:39:10.021Z,1021.39
2017-01-22T04:39:50.617Z,1021.37
2017-01-22T04:40:31.265Z,1021.36
2017-01-22T04:41:11.831Z,1021.36
2017-01-22T04:41:52.429Z,1021.34
2017-01-22T04:42:33.367Z,1021.34
2017-01-22T04:43:13.983Z,1021.32
2017-01-22T04:43:54.543Z,1021.34
2017-01-22T04:44:35.135Z,1021.38
2017-01-22T04:45:15.734Z,1021.31
2017-01-22T04:45:56.386Z,1021.32
2017-01-22T04:46:38.064Z,1021.35
2017-01-22T04:47:18.620Z,1021.32
2017-01-22T04:48:00.294Z,1021.35
2017-01-22T04:48:40.968Z,1021.35
2017-01-22T04:49:21.622Z,1021.37
2017-01-22T04:50:02.252Z,1021.36
2017-01-22T04:50:42.902Z,1021.36
2017-01-22T04:51:23.554Z,1021.35
2017-01-22T04:52:04.128Z,1021.35
2017-01-22T04:52:44.707Z,1021.32
2017-01-22T04:53:25.308Z,1021.33
2017-01-22T04:54:05.962Z,1021.31
2017-01-22T04:54:46.537Z,1021.32
2017-01-22T04:55:27.130Z,1021.31
2017-01-22T04:56:07.715Z,1021.29
2017-01-22T04:56:48.373Z,1021.29
2017-01-22T04:57:28.946Z,1021.25
2017-01-22T04:58:10.545Z,1021.27
2017-01-22T04:58:51.146Z,1021.31
2017-01-22T04:59:31.710Z,1021.22
2017-01-22T05:00:12.296Z,1021.26
2017-01-22T05:00:52.902Z,1021.31
2017-01-22T05:01:33.555Z,1021.25
2017-01-22T05:02:14.207Z,1021.25
2017-01-22T05:02:55.884Z,1021.21
2017-01-22T05:03:36.536Z,1021.2
2017-01-22T05:04:17.189Z,1021.19
2017-01-22T05:04:57.844Z,1021.2
2017-01-22T05:05:38.496Z,1021.18
2017-01-22T05:06:19.148Z,1021.19
2017-01-22T05:06:59.801Z,1021.16
2017-01-22T05:07:40.452Z,1021.14
2017-01-22T05:08:21.104Z,1021.12
2017-01-22T05:09:01.763Z,1021.16
2017-01-22T05:09:43.436Z,1021.19
2017-01-22T05:10:25.118Z,1021.2
2017-01-22T05:11:05.688Z,1021.19
2017-01-22T05:11:46.293Z,1021.17
2017-01-22T05:12:26.968Z,1021.15
2017-01-22T05:13:07.624Z,1021.18
2017-01-22T05:13:48.197Z,1021.19
2017-01-22T05:14:28.774Z,1021.19
2017-01-22T05:15:09.378Z,1021.17
2017-01-22T05:15:51.051Z,1021.2
2017-01-22T05:16:31.716Z,1021.18
2017-01-22T05:17:12.361Z,1021.21
2017-01-22T05:17:53.010Z,1021.22
2017-01-22T05:18:33.660Z,1021.26
2017-01-22T05:19:14.318Z,1021.23
2017-01-22T05:19:54.871Z,1021.21
2017-01-22T05:20:35.515Z,1021.26
2017-01-22T05:21:16.171Z,1021.24
2017-01-22T05:21:56.744Z,1021.25
2017-01-22T05:22:37.309Z,1021.31
2017-01-22T05:23:17.939Z,1021.23
2017-01-22T05:23:58.583Z,1021.29
2017-01-22T05:24:39.133Z,1021.26
2017-01-22T05:25:19.731Z,1021.23
2017-01-22T05:26:00.329Z,1021.23
2017-01-22T05:26:40.988Z,1021.23
2017-01-22T05:27:21.644Z,1021.22
2017-01-22T05:28:02.290Z,1021.26
2017-01-22T05:28:42.940Z,1021.27
2017-01-22T05:29:23.598Z,1021.27
2017-01-22T05:30:04.251Z,1021.27
2017-01-22T05:30:44.817Z,1021.26
2017-01-22T05:31:25.399Z,1021.26
2017-01-22T05:32:06.000Z,1021.3
2017-01-22T05:32:46.576Z,1021.27
2017-01-22T05:33:28.179Z,1021.29
2017-01-22T05:34:08.781Z,1021.28
2017-01-22T05:34:49.435Z,1021.25
2017-01-22T05:35:30.009Z,1021.26
2017-01-22T05:36:10.688Z,1021.29
2017-01-22T05:36:51.339Z,1021.26
2017-01-22T05:37:31.992Z,1021.32
2017-01-22T05:38:12.653Z,1021.25
2017-01-22T05:38:53.302Z,1021.29
2017-01-22T05:39:33.951Z,1021.3
2017-01-22T05:40:14.603Z,1021.31
2017-01-22T05:40:55.256Z,1021.3
2017-01-22T05:41:36.883Z,1021.31
2017-01-22T05:42:17.540Z,1021.3
2017-01-22T05:42:58.190Z,1021.3
2017-01-22T05:43:38.842Z,1021.31
2017-01-22T05:44:19.497Z,1021.27
2017-01-22T05:45:00.151Z,1021.28
2017-01-22T05:45:40.805Z,1021.24
2017-01-22T05:46:21.366Z,1021.28
2017-01-22T05:47:01.955Z,1021.24
2017-01-22T05:47:42.567Z,1021.25
2017-01-22T05:48:23.212Z,1021.27
2017-01-22T05:49:03.772Z,1021.25
2017-01-22T05:49:44.358Z,1021.28
2017-01-22T05:50:24.963Z,1021.24
2017-01-22T05:51:05.610Z,1021.26
2017-01-22T05:51:46.269Z,1021.24
2017-01-22T05:52:26.921Z,1021.24
2017-01-22T05:53:07.574Z,1021.22
2017-01-22T05:53:48.232Z,1021.19
2017-01-22T05:54:28.890Z,1021.22
2017-01-22T05:55:09.534Z,1021.2
2017-01-22T05:55:50.190Z,1021.2
2017-01-22T05:56:30.765Z,1021.19
2017-01-22T05:57:11.342Z,1021.2
2017-01-22T05:57:52.043Z,1021.2
2017-01-22T05:58:32.697Z,1021.2
2017-01-22T05:59:13.263Z,1021.2
2017-01-22T05:59:53.850Z,1021.2
2017-01-22T06:00:34.459Z,1021.2
2017-01-22T06:01:15.131Z,1021.16
2017-01-22T06:01:55.692Z,1021.16
2017-01-22T06:02:36.372Z,1021.13
2017-01-22T06:03:17.063Z,1021.15
2017-01-22T06:03:58.638Z,1021.18
2017-01-22T06:04:39.212Z,1021.2
2017-01-22T06:05:19.841Z,1021.17
2017-01-22T06:06:00.415Z,1021.19
2017-01-22T06:06:40.994Z,1021.13
2017-01-22T06:07:22.624Z,1021.13
2017-01-22T06:08:03.275Z,1021.13
2017-01-22T06:08:43.861Z,1021.16
2017-01-22T06:09:24.531Z,1021.15
2017-01-22T06:10:05.135Z,1021.17
2017-01-22T06:10:45.780Z,1021.16
2017-01-22T06:11:26.354Z,1021.16
2017-01-22T06:12:07.038Z,1021.17
2017-01-22T06:12:47.652Z,1021.17
2017-01-22T06:13:28.225Z,1021.15
2017-01-22T06:14:08.788Z,1021.13
2017-01-22T06:14:49.441Z,1021.16
2017-01-22T06:15:30.066Z,1021.15
2017-01-22T06:16:10.700Z,1021.14
2017-01-22T06:16:51.355Z,1021.15
2017-01-22T06:17:31.999Z,1021.12
2017-01-22T06:18:12.657Z,1021.12
2017-01-22T06:18:53.312Z,1021.12
2017-01-22T06:19:33.957Z,1021.12
2017-01-22T06:20:14.615Z,1021.16
2017-01-22T06:20:55.270Z,1021.15
2017-01-22T06:21:35.834Z,1021.16
2017-01-22T06:22:16.414Z,1021.16
2017-01-22T06:22:57.017Z,1021.18
2017-01-22T06:23:37.670Z,1021.16
2017-01-22T06:24:18.257Z,1021.16
2017-01-22T06:24:58.930Z,1021.15
2017-01-22T06:25:39.530Z,1021.17
2017-01-22T06:26:20.180Z,1021.19
2017-01-22T06:27:00.743Z,1021.18
2017-01-22T06:27:41.382Z,1021.17
2017-01-22T06:28:22.046Z,1021.19
2017-01-22T06:29:02.606Z,1021.17
2017-01-22T06:29:43.245Z,1021.2
2017-01-22T06:30:24.921Z,1021.2
2017-01-22T06:31:05.493Z,1021.21
2017-01-22T06:31:46.126Z,1021.22
2017-01-22T06:32:26.776Z,1021.22
2017-01-22T06:33:07.336Z,1021.19
2017-01-22T06:33:47.933Z,1021.2
2017-01-22T06:34:28.543Z,1021.21
2017-01-22T06:35:09.183Z,1021.2
2017-01-22T06:35:49.752Z,1021.26
2017-01-22T06:36:30.332Z,1021.27
2017-01-22T06:37:10.943Z,1021.27
2017-01-22T06:37:51.585Z,1021.28
2017-01-22T06:38:32.163Z,1021.28
2017-01-22T06:39:12.863Z,1021.28
2017-01-22T06:39:53.453Z,1021.35
2017-01-22T06:40:34.091Z,1021.33
2017-01-22T06:41:14.650Z,1021.32
2017-01-22T06:41:55.257Z,1021.31
2017-01-22T06:42:35.947Z,1021.35
2017-01-22T06:43:18.555Z,1021.29
2017-01-22T06:43:59.122Z,1021.27
2017-01-22T06:44:39.701Z,1021.27
2017-01-22T06:45:20.302Z,1021.31
2017-01-22T06:46:00.959Z,1021.33
2017-01-22T06:46:41.610Z,1021.32
2017-01-22T06:47:23.287Z,1021.34
2017-01-22T06:48:03.943Z,1021.33
2017-01-22T06:48:44.596Z,1021.36
2017-01-22T06:49:25.248Z,1021.33
2017-01-22T06:50:05.898Z,1021.33
2017-01-22T06:50:46.552Z,1021.33
2017-01-22T06:51:27.210Z,1021.35
2017-01-22T06:52:07.864Z,1021.3
2017-01-22T06:52:48.511Z,1021.33
2017-01-22T06:53:29.163Z,1021.36
2017-01-22T06:54:09.821Z,1021.37
2017-01-22T06:54:50.468Z,1021.35
2017-01-22T06:55:31.121Z,1021.36
2017-01-22T06:56:11.690Z,1021.35
2017-01-22T06:56:52.324Z,1021.34
2017-01-22T06:57:34.001Z,1021.33
2017-01-22T06:58:14.563Z,1021.38
2017-01-22T06:58:55.190Z,1021.37
2017-01-22T06:59:35.864Z,1021.38
2017-01-22T07:00:16.418Z,1021.38
2017-01-22T07:00:57.054Z,1021.43
2017-01-22T07:01:37.723Z,1021.44
2017-01-22T07:02:18.279Z,1021.44
2017-01-22T07:02:58.867Z,1021.42
2017-01-22T07:03:39.466Z,1021.41
2017-01-22T07:04:20.127Z,1021.48
2017-01-22T07:05:00.706Z,1021.53
2017-01-22T07:05:41.291Z,1021.49
2017-01-22T07:06:21.872Z,1021.46
2017-01-22T07:07:02.524Z,1021.45
2017-01-22T07:07:43.180Z,1021.45
2017-01-22T07:08:23.737Z,1021.43
2017-01-22T07:09:04.353Z,1021.44
2017-01-22T07:09:44.985Z,1021.47
2017-01-22T07:10:25.636Z,1021.45
2017-01-22T07:11:06.291Z,1021.45
2017-01-22T07:11:46.889Z,1021.42
2017-01-22T07:12:27.543Z,1021.46
2017-01-22T07:13:08.126Z,1021.45
2017-01-22T07:13:48.803Z,1021.42
2017-01-22T07:14:31.448Z,1021.45
2017-01-22T07:15:12.109Z,1021.44
2017-01-22T07:15:52.681Z,1021.48
2017-01-22T07:16:33.273Z,1021.48
2017-01-22T07:17:13.859Z,1021.45
2017-01-22T07:17:54.513Z,1021.45
2017-01-22T07:18:35.094Z,1021.42
2017-01-22T07:19:15.685Z,1021.45
2017-01-22T07:19:56.245Z,1021.44
2017-01-22T07:20:36.913Z,1021.43
2017-01-22T07:21:17.569Z,1021.44
2017-01-22T07:21:59.151Z,1021.45
2017-01-22T07:22:40.825Z,1021.45
2017-01-22T07:23:21.471Z,1021.46
2017-01-22T07:24:02.132Z,1021.47
2017-01-22T07:24:42.782Z,1021.43
2017-01-22T07:25:24.461Z,1021.44
2017-01-22T07:26:05.009Z,1021.43
2017-01-22T07:26:45.586Z,1021.43
2017-01-22T07:27:27.203Z,1021.45
2017-01-22T07:28:07.788Z,1021.4
2017-01-22T07:28:48.443Z,1021.4
2017-01-22T07:29:28.992Z,1021.44
2017-01-22T07:30:09.591Z,1021.39
2017-01-22T07:30:50.191Z,1021.44
2017-01-22T07:31:30.849Z,1021.41
2017-01-22T07:32:11.420Z,1021.4
2017-01-22T07:32:51.976Z,1021.4
2017-01-22T07:33:33.623Z,1021.39
2017-01-22T07:34:14.169Z,1021.4
2017-01-22T07:34:54.820Z,1021.4
2017-01-22T07:35:35.480Z,1021.35
2017-01-22T07:36:16.032Z,1021.34
2017-01-22T07:36:56.685Z,1021.33
2017-01-22T07:37:37.343Z,1021.37
2017-01-22T07:38:17.870Z,1021.35
2017-01-22T07:38:58.492Z,1021.35
2017-01-22T07:39:39.079Z,1021.34
2017-01-22T07:40:19.746Z,1021.33
2017-01-22T07:41:00.298Z,1021.33
2017-01-22T07:41:40.948Z,1021.31
2017-01-22T07:42:21.601Z,1021.34
2017-01-22T07:43:02.163Z,1021.3
2017-01-22T07:43:42.790Z,1021.33
2017-01-22T07:44:23.465Z,1021.32
2017-01-22T07:45:04.986Z,1021.28
2017-01-22T07:45:45.580Z,1021.35
2017-01-22T07:46:26.233Z,1021.34
2017-01-22T07:47:06.890Z,1021.34
2017-01-22T07:47:47.539Z,1021.35
2017-01-22T07:48:28.190Z,1021.39
2017-01-22T07:49:08.850Z,1021.37
2017-01-22T07:49:49.496Z,1021.37
2017-01-22T07:50:30.149Z,1021.4
2017-01-22T07:51:10.719Z,1021.4
2017-01-22T07:51:51.352Z,1021.39
2017-01-22T07:52:31.900Z,1021.38
2017-01-22T07:53:12.555Z,1021.42
2017-01-22T07:53:53.117Z,1021.42
2017-01-22T07:54:33.757Z,1021.4
2017-01-22T07:55:14.411Z,1021.43
2017-01-22T07:55:54.960Z,1021.41
2017-01-22T07:56:35.612Z,1021.39
2017-01-22T07:57:16.270Z,1021.43
2017-01-22T07:57:56.816Z,1021.43
2017-01-22T07:58:37.424Z,1021.46
2017-01-22T07:59:18.020Z,1021.44
2017-01-22T07:59:58.674Z,1021.5
2017-01-22T08:00:39.224Z,1021.46
2017-01-22T08:01:19.844Z,1021.46
2017-01-22T08:02:00.452Z,1021.52
2017-01-22T08:02:41.082Z,1021.49
2017-01-22T08:03:21.628Z,1021.52
2017-01-22T08:04:02.317Z,1021.54
2017-01-22T08:04:43.959Z,1021.56
2017-01-22T08:05:25.637Z,1021.57
2017-01-22T08:06:06.204Z,1021.57
2017-01-22T08:06:46.844Z,1021.56
2017-01-22T08:07:27.429Z,1021.57
2017-01-22T08:08:08.119Z,1021.56
2017-01-22T08:08:48.694Z,1021.57
2017-01-22T08:09:29.271Z,1021.59
2017-01-22T08:10:09.896Z,1021.58
2017-01-22T08:10:51.478Z,1021.55
2017-01-22T08:11:32.057Z,1021.57
2017-01-22T08:12:13.703Z,1021.59
2017-01-22T08:12:54.359Z,1021.58
2017-01-22T08:13:35.013Z,1021.62